Time;durP1;ratioP1;P1;durP2;ratioP2;P2;SDS_P1;SDS_P2;PMS_P1;PMS_P2;Temp;Humidity;BMP_temperature;BMP_pressure;BME280_temperature;BME280_humidity;BME280_pressure;Samples;Min_cycle;Max_cycle;Signal;HPM_P1;HPM_P2
2023/01/15 00:01:20;;;;;;;17.13;10.15;;;-1.20;99.90;;;;;;5053884;28;20388;-76
2023/01/15 00:03:46;;;;;;;9.68;6.60;;;-1.20;99.90;;;;;;5036142;28;20059;-76
2023/01/15 00:06:12;;;;;;;18.90;10.25;;;-1.20;99.90;;;;;;5054095;28;20057;-78
2023/01/15 00:08:37;;;;;;;16.77;10.70;;;-1.20;99.90;;;;;;5036264;28;20036;-75
2023/01/15 00:11:04;;;;;;;16.30;9.65;;;-1.20;99.90;;;;;;5053934;28;20365;-78
2023/01/15 00:13:30;;;;;;;10.82;8.02;;;-1.10;99.90;;;;;;5049954;28;20034;-78
2023/01/15 00:16:13;;;;;;;18.65;8.30;;;-1.10;99.90;;;;;;5049222;28;20051;-76
2023/01/15 00:18:39;;;;;;;15.63;8.48;;;-1.10;99.90;;;;;;5019673;28;20117;-78
2023/01/15 00:21:08;;;;;;;17.23;9.98;;;-1.10;99.90;;;;;;5044645;28;20144;-77
2023/01/15 00:29:06;;;;;;;23.25;12.38;;;-1.10;99.90;;;;;;5053634;28;20055;-74
2023/01/15 00:31:34;;;;;;;20.92;12.50;;;-1.10;99.90;;;;;;5047641;28;20104;-75
2023/01/15 00:34:01;;;;;;;14.60;8.45;;;-1.20;99.90;;;;;;5045786;28;20021;-76
2023/01/15 00:36:27;;;;;;;18.08;10.63;;;-1.10;99.90;;;;;;5052856;28;20457;-73
2023/01/15 00:38:53;;;;;;;16.83;10.70;;;-1.20;99.90;;;;;;5053543;28;20059;-75
2023/01/15 00:41:19;;;;;;;21.35;10.40;;;-1.20;99.90;;;;;;5053071;28;20025;-74
2023/01/15 00:43:45;;;;;;;18.35;12.63;;;-1.20;99.90;;;;;;5053256;28;20024;-73
2023/01/15 00:46:11;;;;;;;18.45;8.55;;;-1.10;99.90;;;;;;5052657;28;20442;-74
2023/01/15 00:48:37;;;;;;;17.60;9.73;;;-1.10;99.90;;;;;;5053056;28;20013;-74
2023/01/15 00:51:03;;;;;;;15.05;9.57;;;-1.10;99.90;;;;;;5053433;28;20444;-74
2023/01/15 00:53:29;;;;;;;21.35;10.85;;;-1.10;99.90;;;;;;5031764;28;20492;-74
2023/01/15 00:55:55;;;;;;;16.98;9.40;;;-1.20;99.90;;;;;;5035145;28;20036;-76
2023/01/15 00:58:21;;;;;;;16.25;8.98;;;-1.20;99.90;;;;;;5052868;28;20420;-75
2023/01/15 01:00:52;;;;;;;15.00;8.63;;;-1.20;99.90;;;;;;5052884;28;20476;-73
2023/01/15 01:03:18;;;;;;;20.15;10.10;;;-1.20;99.90;;;;;;5052853;28;20109;-73
2023/01/15 01:05:44;;;;;;;15.30;8.65;;;-1.30;99.90;;;;;;5034994;28;20130;-73
2023/01/15 01:08:10;;;;;;;24.35;11.88;;;-1.20;99.90;;;;;;5052961;28;20033;-74
2023/01/15 01:10:36;;;;;;;14.98;9.60;;;-1.20;99.90;;;;;;5034745;28;20503;-73
2023/01/15 01:13:02;;;;;;;24.23;11.25;;;-1.20;99.90;;;;;;5052739;28;20375;-73
2023/01/15 01:15:28;;;;;;;22.48;10.82;;;-1.20;99.90;;;;;;5051515;28;20033;-73
2023/01/15 01:17:53;;;;;;;13.93;8.80;;;-1.10;99.90;;;;;;5052753;28;20028;-74
2023/01/15 01:20:19;;;;;;;18.60;9.07;;;-1.10;99.90;;;;;;5034599;28;20045;-73
2023/01/15 01:22:48;;;;;;;21.27;9.60;;;-1.20;99.90;;;;;;5046377;28;20101;-74
2023/01/15 01:25:14;;;;;;;21.42;9.93;;;-1.10;99.90;;;;;;5045174;28;20036;-76
2023/01/15 01:27:42;;;;;;;18.25;9.82;;;-1.20;99.90;;;;;;5034467;28;20391;-73
2023/01/15 01:30:09;;;;;;;22.83;12.45;;;-1.20;99.90;;;;;;5052330;28;20056;-75
2023/01/15 01:32:34;;;;;;;22.48;10.93;;;-1.20;99.90;;;;;;5052328;28;20047;-76
2023/01/15 01:35:00;;;;;;;19.85;11.70;;;-1.20;99.90;;;;;;5052346;28;20021;-74
2023/01/15 01:37:26;;;;;;;20.02;9.88;;;-1.10;99.90;;;;;;5052043;28;20079;-73
2023/01/15 01:39:52;;;;;;;21.63;11.63;;;-1.10;99.90;;;;;;5052279;28;20415;-74
2023/01/15 01:42:18;;;;;;;18.88;10.38;;;-1.10;99.90;;;;;;5052178;28;20032;-74
2023/01/15 01:44:43;;;;;;;23.85;11.05;;;-1.10;99.90;;;;;;5049968;28;20025;-74
2023/01/15 01:47:14;;;;;;;17.77;10.57;;;-1.10;99.90;;;;;;5052437;28;20479;-73
2023/01/15 01:49:42;;;;;;;17.38;8.95;;;-1.10;99.90;;;;;;5051918;28;20025;-74
2023/01/15 01:52:17;;;;;;;19.55;10.68;;;-1.10;99.90;;;;;;5052092;28;20020;-75
2023/01/15 01:54:46;;;;;;;18.38;10.18;;;-1.10;99.90;;;;;;5051916;28;20044;-75
2023/01/15 01:57:12;;;;;;;21.38;9.82;;;-1.10;99.90;;;;;;5051774;28;20061;-74
2023/01/15 01:59:38;;;;;;;15.38;9.25;;;-1.00;99.90;;;;;;5051729;28;20051;-75
2023/01/15 02:02:05;;;;;;;14.80;9.13;;;-1.00;99.90;;;;;;5050825;28;20086;-74
2023/01/15 02:04:31;;;;;;;20.55;10.85;;;-1.00;99.90;;;;;;5051871;28;20096;-74
2023/01/15 02:06:59;;;;;;;16.48;7.30;;;-1.10;99.90;;;;;;5051812;28;20028;-75
2023/01/15 02:09:25;;;;;;;19.50;10.70;;;-1.10;99.90;;;;;;5051845;28;20017;-74
2023/01/15 02:11:56;;;;;;;13.60;9.50;;;-1.10;99.90;;;;;;5051641;28;20028;-73
2023/01/15 02:14:32;;;;;;;17.05;10.10;;;-1.10;99.90;;;;;;5051714;28;20067;-74
2023/01/15 02:17:10;;;;;;;18.35;9.85;;;-1.20;99.90;;;;;;5051354;28;20036;-75
2023/01/15 02:20:04;;;;;;;15.10;8.43;;;-1.10;99.90;;;;;;5043927;28;20037;-74
2023/01/15 02:22:56;;;;;;;15.73;9.27;;;-1.10;99.90;;;;;;5035588;28;20362;-73
2023/01/15 02:25:57;;;;;;;18.42;8.73;;;-1.10;99.90;;;;;;5045099;28;20021;-75
2023/01/15 02:28:29;;;;;;;17.73;10.05;;;-1.10;99.90;;;;;;5041892;28;20029;-74
2023/01/15 02:31:20;;;;;;;20.45;9.90;;;-1.20;99.90;;;;;;5051535;28;20123;-74
2023/01/15 02:33:54;;;;;;;24.52;10.02;;;-1.10;99.90;;;;;;5051513;28;20035;-74
2023/01/15 02:36:23;;;;;;;20.85;9.90;;;-1.10;99.90;;;;;;5032911;28;20056;-75
2023/01/15 02:38:52;;;;;;;23.00;10.82;;;-1.10;99.90;;;;;;5017215;28;20090;-74
2023/01/15 02:41:21;;;;;;;24.90;11.25;;;-1.10;99.90;;;;;;5051287;28;20107;-73
2023/01/15 02:43:51;;;;;;;18.67;9.77;;;-1.10;99.90;;;;;;5051556;28;20075;-76
2023/01/15 02:46:20;;;;;;;23.38;9.50;;;-1.10;99.90;;;;;;5051408;28;20409;-74
2023/01/15 02:48:51;;;;;;;20.50;10.05;;;-1.10;99.90;;;;;;5051373;28;20028;-73
2023/01/15 02:51:22;;;;;;;15.50;7.25;;;-1.10;99.90;;;;;;5053726;28;20009;-72
2023/01/15 02:53:49;;;;;;;18.27;11.50;;;-1.10;99.90;;;;;;5055474;28;20065;-73
2023/01/15 02:56:21;;;;;;;24.38;9.95;;;-1.10;99.90;;;;;;5055362;28;20098;-72
2023/01/15 02:58:52;;;;;;;25.75;11.50;;;-1.10;99.90;;;;;;5055196;28;20048;-73
2023/01/15 03:01:30;;;;;;;25.50;11.05;;;-1.20;99.90;;;;;;5055044;28;20110;-75
2023/01/15 03:04:08;;;;;;;22.30;10.48;;;-1.20;99.90;;;;;;5055481;28;20375;-74
2023/01/15 03:06:42;;;;;;;12.43;7.95;;;-1.20;99.90;;;;;;5055355;28;20371;-74
2023/01/15 03:09:09;;;;;;;19.80;9.45;;;-1.20;99.90;;;;;;5054137;28;20017;-73
2023/01/15 03:11:42;;;;;;;19.80;11.10;;;-1.20;99.90;;;;;;5055112;28;20372;-74
2023/01/15 03:14:22;;;;;;;22.40;10.30;;;-1.10;99.90;;;;;;5055044;28;20025;-75
2023/01/15 03:16:55;;;;;;;23.80;12.05;;;-1.10;99.90;;;;;;5046734;28;20021;-75
2023/01/15 03:19:21;;;;;;;15.65;9.85;;;-1.10;99.90;;;;;;5054872;28;20036;-73
2023/01/15 03:21:50;;;;;;;17.80;11.48;;;-1.10;99.90;;;;;;5054812;28;20025;-75
2023/01/15 03:24:36;;;;;;;14.65;8.88;;;-1.10;99.90;;;;;;5040667;28;20490;-74
2023/01/15 03:27:02;;;;;;;30.65;10.27;;;-1.00;99.90;;;;;;5053142;28;20043;-74
2023/01/15 03:29:43;;;;;;;19.73;11.23;;;-1.10;99.90;;;;;;5054325;28;20021;-75
2023/01/15 03:32:09;;;;;;;18.58;9.68;;;-1.10;99.90;;;;;;5054645;28;20078;-75
2023/01/15 03:34:45;;;;;;;15.90;9.40;;;-1.00;99.90;;;;;;5054272;28;20021;-75
2023/01/15 03:37:11;;;;;;;23.48;11.15;;;-1.00;99.90;;;;;;5054464;28;20487;-74
2023/01/15 03:39:38;;;;;;;20.25;11.00;;;-1.00;99.90;;;;;;5054238;28;20032;-73
2023/01/15 03:42:22;;;;;;;19.40;11.98;;;-1.00;99.90;;;;;;5054548;28;20029;-74
2023/01/15 03:44:57;;;;;;;13.95;8.63;;;-1.00;99.90;;;;;;5054119;28;20139;-73
2023/01/15 03:47:23;;;;;;;22.67;10.85;;;-1.00;99.90;;;;;;5054358;28;20036;-73
2023/01/15 03:50:13;;;;;;;25.65;10.98;;;-1.00;99.90;;;;;;5054223;28;20025;-73
2023/01/15 03:52:51;;;;;;;24.42;10.35;;;-1.00;99.90;;;;;;5054185;28;20658;-75
2023/01/15 03:55:27;;;;;;;21.08;9.38;;;-1.00;99.90;;;;;;5054644;28;20029;-74
2023/01/15 03:58:01;;;;;;;25.98;11.38;;;-1.00;99.90;;;;;;5052895;28;20053;-73
2023/01/15 04:00:36;;;;;;;25.15;9.05;;;-1.10;99.90;;;;;;5054012;28;20036;-74
2023/01/15 04:03:05;;;;;;;21.42;8.90;;;-1.10;99.90;;;;;;5053275;28;20096;-73
2023/01/15 04:05:33;;;;;;;19.05;10.60;;;-1.10;99.90;;;;;;5054061;28;20364;-74
2023/01/15 04:08:00;;;;;;;22.23;10.25;;;-1.10;99.90;;;;;;5053847;28;20075;-74
2023/01/15 04:10:25;;;;;;;16.42;9.00;;;-1.10;99.90;;;;;;5053959;28;20372;-75
2023/01/15 04:12:51;;;;;;;21.15;10.25;;;-1.10;99.90;;;;;;5053495;28;20031;-74
2023/01/15 04:15:17;;;;;;;14.70;8.73;;;-1.10;99.90;;;;;;5052584;28;20044;-74
2023/01/15 04:17:43;;;;;;;18.17;9.88;;;-1.10;99.90;;;;;;5053795;28;20017;-74
2023/01/15 04:20:10;;;;;;;23.95;13.73;;;-1.10;99.90;;;;;;5053706;28;20495;-75
2023/01/15 04:22:36;;;;;;;27.23;11.43;;;-1.10;99.90;;;;;;5048659;28;20480;-74
2023/01/15 04:25:03;;;;;;;23.33;10.32;;;-1.10;99.90;;;;;;5044579;28;20044;-74
2023/01/15 04:27:29;;;;;;;21.83;13.05;;;-1.10;99.90;;;;;;5053753;28;20345;-74
2023/01/15 04:29:54;;;;;;;14.65;8.80;;;-1.10;99.90;;;;;;5052482;28;20111;-74
2023/01/15 04:32:20;;;;;;;22.73;11.75;;;-1.20;99.90;;;;;;5053367;28;20029;-74
2023/01/15 04:34:46;;;;;;;21.10;12.68;;;-1.20;99.90;;;;;;5053453;28;20388;-74
2023/01/15 04:37:13;;;;;;;17.10;9.15;;;-1.10;99.90;;;;;;5053412;28;20101;-74
2023/01/15 04:39:38;;;;;;;16.80;8.77;;;-1.10;99.90;;;;;;5053103;28;20094;-74
2023/01/15 04:44:48;;;;;;;20.05;10.40;;;-1.10;99.90;;;;;;5052435;28;20510;-76
2023/01/15 04:47:14;;;;;;;16.38;8.25;;;-1.10;99.90;;;;;;5053387;28;20033;-74
2023/01/15 04:49:40;;;;;;;19.98;11.73;;;-1.10;99.90;;;;;;5053109;28;20029;-76
2023/01/15 04:52:06;;;;;;;18.38;8.45;;;-1.20;99.90;;;;;;5053159;28;20032;-75
2023/01/15 04:54:32;;;;;;;23.67;11.18;;;-1.30;99.90;;;;;;5053192;28;20026;-74
2023/01/15 04:56:58;;;;;;;20.10;11.63;;;-1.30;99.90;;;;;;5052934;28;20526;-74
2023/01/15 04:59:25;;;;;;;26.52;11.05;;;-1.30;99.90;;;;;;5053212;28;20021;-74
2023/01/15 05:01:51;;;;;;;;;;;-1.30;99.90;;;;;;5052682;28;20383;-76
2023/01/15 05:04:17;;;;;;;24.85;13.30;;;-1.30;99.90;;;;;;5052961;28;19912;-74
2023/01/15 05:06:43;;;;;;;16.92;7.38;;;-1.40;99.90;;;;;;5052770;28;20017;-75
2023/01/15 05:09:10;;;;;;;17.33;10.20;;;-1.40;99.90;;;;;;5052789;28;20027;-75
2023/01/15 05:11:37;;;;;;;28.67;14.40;;;-1.50;99.90;;;;;;5052765;28;20017;-77
2023/01/15 05:14:04;;;;;;;32.50;13.57;;;-1.50;99.90;;;;;;5052284;28;20075;-73
2023/01/15 05:16:32;;;;;;;19.83;12.50;;;-1.60;99.90;;;;;;5049676;28;20101;-75
2023/01/15 05:19:03;;;;;;;21.63;11.45;;;-1.50;99.90;;;;;;5044054;28;20032;-75
2023/01/15 05:21:31;;;;;;;27.20;12.52;;;-1.50;99.90;;;;;;5052576;28;20119;-75
2023/01/15 05:23:59;;;;;;;36.28;12.20;;;-1.50;99.90;;;;;;5038314;28;20041;-76
2023/01/15 05:26:26;;;;;;;24.67;11.98;;;-1.60;99.90;;;;;;5052309;28;20479;-77
2023/01/15 05:28:56;;;;;;;25.35;12.65;;;-1.60;99.90;;;;;;5052392;28;20021;-76
2023/01/15 05:31:23;;;;;;;28.30;13.85;;;-1.60;99.90;;;;;;5052565;28;20056;-76
2023/01/15 05:33:50;;;;;;;27.60;11.20;;;-1.60;99.90;;;;;;5051580;28;20151;-75
2023/01/15 05:36:18;;;;;;;26.30;13.10;;;-1.60;99.90;;;;;;5052218;28;20025;-75
2023/01/15 05:38:44;;;;;;;33.65;13.98;;;-1.60;99.90;;;;;;5052215;28;20029;-76
2023/01/15 05:44:03;;;;;;;27.73;12.68;;;-1.60;99.90;;;;;;5052238;28;20526;-76
2023/01/15 05:46:29;;;;;;;13.57;6.35;;;-1.60;99.90;;;;;;5052067;28;20025;-76
2023/01/15 05:49:02;;;;;;;29.42;11.73;;;-1.60;99.90;;;;;;5052072;28;20214;-77
2023/01/15 05:51:29;;;;;;;22.77;11.20;;;-1.60;99.90;;;;;;5050793;28;20120;-75
2023/01/15 05:53:58;;;;;;;27.37;11.77;;;-1.70;99.90;;;;;;5052007;28;20049;-75
2023/01/15 05:56:25;;;;;;;25.20;11.55;;;-1.70;99.90;;;;;;5033601;28;20033;-75
2023/01/15 05:58:51;;;;;;;17.95;10.02;;;-1.60;99.90;;;;;;5051901;28;20511;-75
2023/01/15 06:01:18;;;;;;;31.55;12.80;;;-1.60;99.90;;;;;;5051577;28;20057;-74
2023/01/15 06:03:46;;;;;;;23.35;10.63;;;-1.50;99.90;;;;;;5051822;28;20071;-74
2023/01/15 06:06:17;;;;;;;30.95;13.75;;;-1.60;99.90;;;;;;5050910;28;20472;-76
2023/01/15 06:08:43;;;;;;;26.50;11.98;;;-1.60;99.90;;;;;;5038598;28;20028;-75
2023/01/15 06:11:12;;;;;;;23.52;11.23;;;-1.60;99.90;;;;;;5051779;28;20113;-75
2023/01/15 06:13:39;;;;;;;32.28;16.35;;;-1.50;99.90;;;;;;5051530;28;20021;-76
2023/01/15 06:16:06;;;;;;;21.00;11.32;;;-1.50;99.90;;;;;;5051665;28;20032;-75
2023/01/15 06:18:34;;;;;;;31.58;13.48;;;-1.50;99.90;;;;;;5033733;28;20017;-73
2023/01/15 06:21:08;;;;;;;21.58;10.55;;;-1.40;99.90;;;;;;5051560;28;20037;-74
2023/01/15 06:23:37;;;;;;;26.35;12.02;;;-1.40;99.90;;;;;;5039621;28;20053;-75
2023/01/15 06:26:06;;;;;;;34.45;12.23;;;-1.30;99.90;;;;;;5050800;28;20024;-74
2023/01/15 06:28:32;;;;;;;28.20;13.30;;;-1.30;99.90;;;;;;5051302;28;20110;-75
2023/01/15 06:30:58;;;;;;;21.35;11.32;;;-1.30;99.90;;;;;;5051433;28;20375;-75
2023/01/15 06:33:24;;;;;;;25.73;12.32;;;-1.30;99.90;;;;;;5051438;28;20116;-74
2023/01/15 06:35:51;;;;;;;29.15;11.45;;;-1.20;99.90;;;;;;5051268;28;20145;-75
2023/01/15 06:38:17;;;;;;;29.67;13.00;;;-1.20;99.90;;;;;;5051208;28;20112;-74
2023/01/15 06:40:43;;;;;;;28.73;13.80;;;-1.20;99.90;;;;;;5050140;28;20115;-76
2023/01/15 06:48:42;;;;;;;24.48;12.68;;;-1.20;99.90;;;;;;5051698;28;19916;-75
2023/01/15 06:51:07;;;;;;;22.42;12.52;;;-1.30;99.90;;;;;;5051054;28;20075;-76
2023/01/15 06:53:33;;;;;;;24.15;15.75;;;-1.30;99.90;;;;;;5051241;28;20029;-76
2023/01/15 06:56:00;;;;;;;28.95;12.95;;;-1.20;99.90;;;;;;5051227;28;20064;-75
2023/01/15 06:58:26;;;;;;;29.85;12.82;;;-1.20;99.90;;;;;;5050111;28;20530;-75
2023/01/15 07:00:55;;;;;;;29.73;12.75;;;-1.20;99.90;;;;;;5050992;28;20076;-75
2023/01/15 07:03:24;;;;;;;23.25;12.23;;;-1.20;99.90;;;;;;5050631;28;20020;-76
2023/01/15 07:05:50;;;;;;;31.95;11.93;;;-1.20;99.90;;;;;;5050977;28;20116;-74
2023/01/15 07:08:16;;;;;;;36.15;14.60;;;-1.20;99.90;;;;;;5051171;28;20108;-75
2023/01/15 07:10:42;;;;;;;26.88;12.70;;;-1.20;99.90;;;;;;5050932;28;20033;-75
2023/01/15 07:13:09;;;;;;;25.90;15.10;;;-1.20;99.90;;;;;;5050865;28;20071;-73
2023/01/15 07:15:38;;;;;;;25.50;11.70;;;-1.20;99.90;;;;;;5050231;28;20063;-74
2023/01/15 07:18:04;;;;;;;22.83;11.82;;;-1.20;99.90;;;;;;5049168;28;20448;-75
2023/01/15 07:20:30;;;;;;;25.27;11.95;;;-1.20;99.90;;;;;;5050645;28;20072;-75
2023/01/15 07:22:56;;;;;;;32.08;12.02;;;-1.20;99.90;;;;;;5050408;28;20020;-74
2023/01/15 07:25:22;;;;;;;18.45;9.07;;;-1.10;99.90;;;;;;5050310;28;20033;-75
2023/01/15 07:27:48;;;;;;;29.13;11.82;;;-1.10;99.90;;;;;;5027368;28;20025;-76
2023/01/15 07:30:14;;;;;;;28.58;12.55;;;-1.20;99.90;;;;;;5045509;28;20386;-75
2023/01/15 07:32:40;;;;;;;18.95;10.63;;;-1.20;99.90;;;;;;5047955;28;20029;-76
2023/01/15 07:35:06;;;;;;;26.25;11.80;;;-1.20;99.90;;;;;;5051081;28;20096;-73
2023/01/15 07:37:32;;;;;;;31.48;12.35;;;-1.20;99.90;;;;;;5035711;28;20028;-75
2023/01/15 07:39:58;;;;;;;27.02;11.80;;;-1.20;99.90;;;;;;5053926;28;20033;-74
2023/01/15 07:50:38;;;;;;;25.67;13.00;;;-1.00;99.90;;;;;;5054314;28;20084;-75
2023/01/15 07:53:04;;;;;;;25.65;14.23;;;-1.00;99.90;;;;;;5051611;28;20111;-76
2023/01/15 07:55:30;;;;;;;28.80;12.70;;;-1.00;99.90;;;;;;5055274;28;20107;-75
2023/01/15 07:57:56;;;;;;;22.05;11.95;;;-0.90;99.90;;;;;;5036240;28;20619;-75
2023/01/15 08:00:28;;;;;;;23.35;13.07;;;-0.90;99.90;;;;;;5054699;28;20162;-76
2023/01/15 08:02:53;;;;;;;27.27;12.00;;;-0.90;99.90;;;;;;5054833;28;20017;-75
2023/01/15 08:05:19;;;;;;;22.85;11.85;;;-0.90;99.90;;;;;;5033802;28;20730;-74
2023/01/15 08:07:46;;;;;;;23.27;12.98;;;-0.90;99.90;;;;;;5048207;28;20029;-75
2023/01/15 08:10:16;;;;;;;24.23;13.40;;;-0.90;99.90;;;;;;5053807;28;20040;-73
2023/01/15 08:15:28;;;;;;;26.20;14.45;;;-0.80;99.90;;;;;;5053518;28;20036;-74
2023/01/15 08:17:54;;;;;;;25.60;14.68;;;-0.80;99.90;;;;;;5053282;28;20027;-74
2023/01/15 08:20:22;;;;;;;24.48;11.02;;;-0.80;99.90;;;;;;5053045;28;20494;-74
2023/01/15 08:22:48;;;;;;;20.73;10.18;;;-0.80;99.90;;;;;;5052881;28;20032;-76
2023/01/15 08:25:20;;;;;;;19.98;10.38;;;-0.80;99.90;;;;;;5036503;28;20030;-74
2023/01/15 08:27:46;;;;;;;31.08;14.95;;;-0.80;99.90;;;;;;5042943;28;20049;-75
2023/01/15 08:30:18;;;;;;;28.10;13.02;;;-0.80;99.90;;;;;;5052476;28;20029;-73
2023/01/15 08:32:44;;;;;;;23.35;13.45;;;-0.80;99.90;;;;;;5053051;28;20029;-73
2023/01/15 08:35:11;;;;;;;23.85;13.32;;;-0.80;99.90;;;;;;5053226;28;20036;-73
2023/01/15 08:37:41;;;;;;;17.85;10.65;;;-0.80;99.90;;;;;;5053331;28;20120;-74
2023/01/15 08:40:09;;;;;;;14.98;7.82;;;-0.70;99.90;;;;;;5053075;28;20044;-74
2023/01/15 08:42:35;;;;;;;23.27;9.90;;;-0.80;99.90;;;;;;5044008;28;20087;-73
2023/01/15 08:45:00;;;;;;;21.75;12.68;;;-0.80;99.90;;;;;;5035109;28;20028;-73
2023/01/15 08:47:26;;;;;;;27.20;12.38;;;-0.90;99.90;;;;;;5052174;28;20047;-75
2023/01/15 08:49:52;;;;;;;25.02;11.93;;;-0.80;99.90;;;;;;5052712;28;20380;-74
2023/01/15 08:52:18;;;;;;;18.67;9.70;;;-0.70;99.90;;;;;;5033229;28;20017;-74
2023/01/15 08:54:44;;;;;;;25.38;11.32;;;-0.70;99.90;;;;;;5052810;28;20025;-74
2023/01/15 08:57:11;;;;;;;35.00;13.45;;;-0.70;99.90;;;;;;5052207;28;20132;-74
2023/01/15 08:59:37;;;;;;;22.83;13.32;;;-0.70;99.90;;;;;;5052426;28;20040;-74
2023/01/15 09:02:03;;;;;;;23.98;11.25;;;-0.60;99.90;;;;;;5052519;28;20025;-74
2023/01/15 09:04:28;;;;;;;18.02;11.52;;;-0.60;99.90;;;;;;5034470;28;20071;-74
2023/01/15 09:06:54;;;;;;;23.75;12.45;;;-0.70;99.90;;;;;;5034714;28;20030;-74
2023/01/15 09:09:20;;;;;;;16.33;8.63;;;-0.70;99.90;;;;;;5050561;28;20057;-75
2023/01/15 09:11:46;;;;;;;21.33;10.38;;;-0.70;99.90;;;;;;5052580;28;20095;-72
2023/01/15 09:14:14;;;;;;;26.50;11.00;;;-0.80;99.90;;;;;;5052760;28;20076;-74
2023/01/15 09:16:40;;;;;;;21.08;14.30;;;-0.80;99.90;;;;;;5033870;28;20082;-74
2023/01/15 09:19:06;;;;;;;22.33;13.25;;;-0.70;99.90;;;;;;5034412;28;20074;-75
2023/01/15 09:21:33;;;;;;;20.52;11.27;;;-0.60;99.90;;;;;;5051277;28;20037;-75
2023/01/15 09:23:59;;;;;;;22.80;12.85;;;-0.60;99.90;;;;;;5047345;28;20029;-75
2023/01/15 09:26:34;;;;;;;25.90;14.88;;;-0.50;99.90;;;;;;5052496;28;20377;-76
2023/01/15 09:29:02;;;;;;;28.23;13.88;;;-0.50;99.90;;;;;;5052283;28;20028;-74
2023/01/15 09:31:28;;;;;;;;;;;-0.50;99.90;;;;;;5044668;28;20024;-75
2023/01/15 09:33:54;;;;;;;18.90;11.70;;;-0.50;99.90;;;;;;5065558;28;19905;-75
2023/01/15 09:36:31;;;;;;;20.10;12.63;;;-0.60;99.90;;;;;;5051380;28;20025;-74
2023/01/15 09:38:58;;;;;;;18.67;10.57;;;-0.70;99.90;;;;;;5051982;28;20021;-79
2023/01/15 09:44:36;;;;;;;20.48;12.10;;;-0.70;99.90;;;;;;5047723;28;20395;-76
2023/01/15 09:47:28;;;;;;;28.92;11.38;;;-0.60;99.90;;;;;;5051993;28;20104;-76
2023/01/15 09:50:25;;;;;;;23.88;12.77;;;-0.50;99.90;;;;;;5037822;28;20041;-76
2023/01/15 09:52:57;;;;;;;;;;;-0.50;99.90;;;;;;5046637;28;20017;-79
2023/01/15 09:55:32;;;;;;;29.77;12.40;;;-0.50;99.90;;;;;;5034092;28;19905;-75
2023/01/15 09:58:01;;;;;;;24.90;13.63;;;-0.50;99.90;;;;;;5051792;28;20079;-76
2023/01/15 10:00:33;;;;;;;21.65;11.77;;;-0.40;99.90;;;;;;5051778;28;20020;-76
2023/01/15 10:03:31;;;;;;;15.30;8.77;;;-0.40;99.90;;;;;;5051861;28;20046;-78
2023/01/15 10:06:10;;;;;;;22.00;12.10;;;-0.50;99.80;;;;;;5051958;28;20021;-78
2023/01/15 10:08:49;;;;;;;22.05;11.20;;;-0.50;99.90;;;;;;5052035;28;20021;-77
2023/01/15 10:11:16;;;;;;;29.30;10.13;;;-0.50;99.90;;;;;;5051746;28;20075;-77
2023/01/15 10:13:55;;;;;;;27.07;14.17;;;-0.40;99.90;;;;;;5051961;28;20538;-77
2023/01/15 10:16:24;;;;;;;20.17;10.32;;;-0.40;99.90;;;;;;5051829;28;20029;-76
2023/01/15 10:18:51;;;;;;;26.13;14.05;;;-0.40;99.70;;;;;;5033705;28;20111;-77
2023/01/15 10:21:52;;;;;;;22.45;10.73;;;-0.40;99.90;;;;;;5048617;28;20084;-79
2023/01/15 10:24:32;;;;;;;25.33;7.95;;;-0.30;99.90;;;;;;5036267;28;20025;-78
2023/01/15 10:26:59;;;;;;;24.60;12.48;;;-0.30;99.80;;;;;;5051047;28;20033;-78
2023/01/15 10:29:45;;;;;;;19.88;10.55;;;-0.40;99.90;;;;;;5051339;28;20044;-79
2023/01/15 10:32:29;;;;;;;21.42;10.32;;;-0.30;99.90;;;;;;5051381;28;20025;-78
2023/01/15 10:35:10;;;;;;;23.30;9.80;;;-0.30;99.70;;;;;;5043562;28;20040;-78
2023/01/15 10:38:06;;;;;;;22.52;9.35;;;-0.30;99.60;;;;;;5050757;28;20424;-78
2023/01/15 10:40:48;;;;;;;19.20;10.77;;;-0.30;99.30;;;;;;5050919;28;20068;-77
2023/01/15 10:43:23;;;;;;;20.40;10.23;;;-0.30;99.50;;;;;;5030063;28;20021;-78
2023/01/15 10:45:55;;;;;;;21.33;11.90;;;-0.30;99.60;;;;;;5045926;28;20841;-80
2023/01/15 10:48:38;;;;;;;27.05;11.85;;;-0.20;99.60;;;;;;5050892;28;20061;-78
2023/01/15 10:51:18;;;;;;;21.92;11.43;;;-0.20;99.50;;;;;;5050609;28;20100;-77
2023/01/15 10:54:04;;;;;;;19.20;9.60;;;-0.10;99.40;;;;;;5032611;28;20040;-77
2023/01/15 10:56:47;;;;;;;20.42;11.45;;;-0.10;99.00;;;;;;5019200;28;20112;-79
2023/01/15 10:59:40;;;;;;;24.35;11.93;;;-0.20;99.20;;;;;;5051510;28;20048;-78
2023/01/15 11:02:33;;;;;;;23.33;12.30;;;-0.10;99.20;;;;;;5050567;28;20048;-78
2023/01/15 11:05:00;;;;;;;14.57;9.55;;;-0.10;99.20;;;;;;5050876;28;20025;-77
2023/01/15 11:07:40;;;;;;;19.55;10.50;;;-0.10;98.70;;;;;;5050861;28;20025;-77
2023/01/15 11:10:14;;;;;;;21.60;9.98;;;-0.10;99.10;;;;;;5050723;28;20023;-78
2023/01/15 11:21:18;;;;;;;19.50;9.02;;;-0.10;98.80;;;;;;5054465;28;20538;-74
2023/01/15 11:23:44;;;;;;;19.13;8.20;;;0.00;98.70;;;;;;5054695;28;20041;-77
2023/01/15 11:26:24;;;;;;;18.05;10.15;;;-0.10;98.50;;;;;;5049933;28;20032;-76
2023/01/15 11:28:52;;;;;;;18.63;9.88;;;-0.20;98.60;;;;;;5041322;28;20021;-76
2023/01/15 11:31:18;;;;;;;;;;;-0.10;98.70;;;;;;5054985;28;20048;-76
2023/01/15 11:34:04;;;;;;;20.30;9.40;;;-0.10;98.30;;;;;;5052579;28;19912;-75
2023/01/15 11:36:32;;;;;;;22.90;10.18;;;-0.20;98.60;;;;;;5029460;28;20036;-76
2023/01/15 11:38:58;;;;;;;15.60;8.18;;;-0.10;98.90;;;;;;5021573;28;20127;-74
2023/01/15 11:52:59;;;;;;;18.10;9.75;;;-0.20;98.20;;;;;;4972997;28;20041;-79
2023/01/15 11:55:26;;;;;;;13.45;7.55;;;-0.20;98.60;;;;;;4972980;28;20034;-76
2023/01/15 11:57:54;;;;;;;16.70;9.25;;;-0.20;98.50;;;;;;4972702;28;20549;-75
2023/01/15 12:00:20;;;;;;;;;;;-0.10;98.50;;;;;;4973299;28;20572;-75
2023/01/15 12:02:49;;;;;;;15.88;7.00;;;-0.10;98.60;;;;;;4973135;28;19917;-75
2023/01/15 12:05:23;;;;;;;17.10;8.63;;;-0.10;98.40;;;;;;4973038;28;20026;-75
2023/01/15 12:07:52;;;;;;;12.90;9.07;;;-0.20;98.30;;;;;;4956726;28;20498;-77
2023/01/15 12:13:35;;;;;;;18.20;8.93;;;-0.20;98.50;;;;;;4973152;28;20535;-75
2023/01/15 12:16:26;;;;;;;14.38;8.43;;;-0.30;98.50;;;;;;4972880;28;20039;-75
2023/01/15 12:19:16;;;;;;;17.90;8.35;;;-0.30;98.50;;;;;;4972891;28;20035;-75
2023/01/15 12:22:01;;;;;;;17.23;8.57;;;-0.30;98.50;;;;;;4971755;28;20125;-75
2023/01/15 12:25:17;;;;;;;10.75;6.90;;;-0.40;98.40;;;;;;4958852;28;20106;-74
2023/01/15 12:27:52;;;;;;;27.98;9.90;;;-0.40;98.50;;;;;;4973192;28;20507;-76
2023/01/15 12:30:23;;;;;;;18.67;8.68;;;-0.40;98.60;;;;;;5053238;28;20031;-76
2023/01/15 12:33:12;;;;;;;16.83;8.95;;;-0.40;98.70;;;;;;5053263;28;20056;-76
2023/01/15 12:35:44;;;;;;;24.77;12.93;;;-0.30;98.60;;;;;;5051836;28;20036;-75
2023/01/15 12:38:35;;;;;;;21.48;8.27;;;-0.30;98.60;;;;;;5052994;28;20360;-76
2023/01/15 12:41:10;;;;;;;13.15;7.03;;;-0.40;98.30;;;;;;5052932;28;20036;-78
2023/01/15 12:46:30;;;;;;;12.98;5.63;;;-0.40;98.50;;;;;;5053317;28;20051;-80
2023/01/15 12:49:33;;;;;;;9.57;5.28;;;-0.40;98.30;;;;;;5053068;28;20056;-80
2023/01/15 12:52:08;;;;;;;17.98;5.95;;;-0.40;98.30;;;;;;5052539;28;20031;-80
2023/01/15 12:55:00;;;;;;;17.30;8.88;;;-0.50;98.40;;;;;;5052965;28;20028;-79
2023/01/15 12:57:35;;;;;;;16.42;7.57;;;-0.40;98.60;;;;;;5035195;28;20044;-79
2023/01/15 13:00:15;;;;;;;15.75;4.93;;;-0.40;98.30;;;;;;5053029;28;20033;-79
2023/01/15 13:02:49;;;;;;;22.30;6.70;;;-0.40;98.20;;;;;;5053069;28;20376;-80
2023/01/15 13:05:18;;;;;;;10.10;4.20;;;-0.50;98.30;;;;;;5021129;28;20115;-78
2023/01/15 13:07:50;;;;;;;13.93;5.63;;;-0.50;98.30;;;;;;5052965;28;20028;-78
2023/01/15 13:10:18;;;;;;;13.13;6.05;;;-0.50;98.10;;;;;;5052796;28;20436;-77
2023/01/15 13:12:44;;;;;;;14.07;6.78;;;-0.50;97.90;;;;;;5052885;28;20032;-79
2023/01/15 13:15:18;;;;;;;13.90;7.07;;;-0.60;98.00;;;;;;5052586;28;20021;-78
2023/01/15 13:18:20;;;;;;;18.63;8.32;;;-0.60;98.10;;;;;;5043944;28;20025;-78
2023/01/15 13:20:50;;;;;;;15.00;6.22;;;-0.50;98.20;;;;;;5051304;28;20063;-79
2023/01/15 13:23:43;;;;;;;14.18;8.77;;;-0.60;98.10;;;;;;5053007;28;20013;-78
2023/01/15 13:26:32;;;;;;;10.30;5.38;;;-0.50;98.30;;;;;;5052654;28;20020;-79
2023/01/15 13:29:26;;;;;;;10.10;4.93;;;-0.50;97.80;;;;;;5052660;28;20104;-79
2023/01/15 13:32:05;;;;;;;10.45;5.75;;;-0.60;97.90;;;;;;5052612;28;20017;-80
2023/01/15 13:34:30;;;;;;;11.40;5.93;;;-0.60;98.10;;;;;;5051902;28;20408;-79
2023/01/15 13:37:08;;;;;;;10.45;5.32;;;-0.50;98.00;;;;;;5050849;28;20118;-79
2023/01/15 13:39:41;;;;;;;12.55;5.50;;;-0.60;97.90;;;;;;5050813;28;20013;-77
2023/01/15 13:42:31;;;;;;;15.40;6.97;;;-0.50;98.10;;;;;;5051984;28;20029;-83
2023/01/15 13:45:04;;;;;;;11.98;5.60;;;-0.50;98.00;;;;;;5052057;28;20024;-79
2023/01/15 13:47:33;;;;;;;10.48;5.38;;;-0.50;97.90;;;;;;5034444;28;20059;-81
2023/01/15 13:50:05;;;;;;;9.50;5.72;;;-0.50;97.80;;;;;;5040788;28;20066;-78